Decoded Metar for LFRG (DEAUVILLE in FRANCE) (IATA:DOL) | Meteo·Mobile Aviation Weather
aviador You're here:

LFRG Decoded Metar

DEAUVILLE in FRANCE
Report Time2019-02-16 00:30:00
UTC Time2019-02-16 00:52:00
Flight Rules vfr VFR
Wind200° at 06 kt
W.Decomp.*RWY 12: 0.9 kt HW 5.9 kt RCW
W.Rank200° ranks 5
Current wind is below 200° avg. (8.1)
Visibility9999 m
Phenomena:N/A
Clouds:N/A
Expected CloudBase > 2,400 ft AGL from Temp-Dew spread
CeilingNone
Temp06°C (ISA -8)
Dew Point00°C (66% RH)
AAT1.9°C
QNH1026 hPa
Density Alt-843 ft
Elevation479 ft
Report Wrong Elevation
Raw Report
LFRG 160030Z AUTO 20006KT CAVOK 06/00 Q1026=

Extra information for LFRG:More info

Metar Taf Metar & Taf Last 4 Metars F.Rules Stats Wind Profile Meteogram Temp Stats Airport Information Weather charts Add Link Nearby VenuesMetar ALERT Operation Metar Decoded Social comments